Time;durP1;ratioP1;P1;durP2;ratioP2;P2;SDS_P1;SDS_P2;PMS_P1;PMS_P2;Temp;Humidity;BMP_temperature;BMP_pressure;BME280_temperature;BME280_humidity;BME280_pressure;Samples;Min_cycle;Max_cycle;Signal;HPM_P1;HPM_P2
2022/10/02 00:00:17;;;;;;;16.10;3.33;;;;;;;20.78;100.00;101201.88;4992841;28;20337;-53
2022/10/02 00:02:45;;;;;;;;;;;;;;;20.97;100.00;101208.91;5007313;28;20273;-56
2022/10/02 00:05:16;;;;;;;18.00;3.73;;;;;;;20.97;100.00;101204.25;4997470;28;19925;-56
2022/10/02 00:07:59;;;;;;;25.37;3.93;;;;;;;20.96;100.00;101213.50;5014455;28;20276;-51
2022/10/02 00:10:33;;;;;;;31.00;8.00;;;;;;;21.12;100.00;101210.94;5001123;28;20257;-54
2022/10/02 00:13:06;;;;;;;33.90;8.50;;;;;;;20.69;100.00;101211.56;4994455;28;20296;-52
2022/10/02 00:15:34;;;;;;;27.70;9.60;;;;;;;21.12;100.00;101210.94;4989908;28;20271;-49
2022/10/02 00:18:06;;;;;;;28.73;11.00;;;;;;;20.83;100.00;101214.72;5003203;28;20289;-54
2022/10/02 00:21:08;;;;;;;35.20;11.20;;;;;;;20.01;100.00;101214.50;5001471;28;20266;-53
2022/10/02 00:23:42;;;;;;;39.73;10.83;;;;;;;19.83;100.00;101205.53;5001487;28;20277;-52
2022/10/02 00:26:22;;;;;;;34.60;11.43;;;;;;;19.87;100.00;101209.41;5003308;28;20281;-52
2022/10/02 00:28:55;;;;;;;29.60;9.70;;;;;;;19.97;100.00;101219.63;5012102;28;20297;-49
2022/10/02 00:31:59;;;;;;;33.10;11.43;;;;;;;19.71;100.00;101202.09;4994360;28;20276;-51
2022/10/02 00:34:55;;;;;;;42.10;17.03;;;;;;;19.89;100.00;101204.56;5008783;28;20302;-53
2022/10/02 00:37:43;;;;;;;41.23;14.57;;;;;;;19.96;100.00;101209.00;5023084;28;20277;-53
2022/10/02 00:40:44;;;;;;;36.50;12.30;;;;;;;19.76;100.00;101208.44;5003703;28;20291;-50
2022/10/02 00:43:31;;;;;;;51.23;16.87;;;;;;;19.85;100.00;101208.00;5001506;28;20316;-52
2022/10/02 00:46:21;;;;;;;70.22;21.10;;;;;;;19.74;100.00;101204.31;4991831;28;20280;-55
2022/10/02 00:49:19;;;;;;;53.23;23.17;;;;;;;19.95;100.00;101213.59;4990650;28;20031;-54
2022/10/02 00:52:21;;;;;;;58.50;23.95;;;;;;;19.91;100.00;101217.88;4997070;28;20308;-52
2022/10/02 00:55:06;;;;;;;57.60;18.07;;;;;;;20.09;100.00;101219.53;5002669;28;20090;-48
2022/10/02 00:58:01;;;;;;;58.93;15.53;;;;;;;20.30;100.00;101214.38;5002388;28;20268;-53
2022/10/02 01:00:27;;;;;;;38.10;12.50;;;;;;;20.32;100.00;101213.03;4992549;28;20276;-54
2022/10/02 01:03:11;;;;;;;37.47;13.52;;;;;;;20.28;100.00;101221.91;5002963;28;20292;-56
2022/10/02 01:05:37;;;;;;;57.27;14.30;;;;;;;20.47;100.00;101220.53;4992484;28;20054;-55
2022/10/02 01:08:03;;;;;;;56.67;13.88;;;;;;;20.32;100.00;101217.66;5000328;28;20308;-56
2022/10/02 01:10:29;;;;;;;40.78;13.40;;;;;;;20.84;100.00;101221.81;5012600;28;20056;-54
2022/10/02 01:12:56;;;;;;;46.85;14.25;;;;;;;20.24;100.00;101215.34;4989636;28;20075;-52
2022/10/02 01:15:28;;;;;;;56.57;14.90;;;;;;;20.62;100.00;101213.66;5001223;28;20051;-50
2022/10/02 01:17:55;;;;;;;55.93;14.33;;;;;;;20.98;100.00;101227.66;5010580;28;20345;-50
2022/10/02 01:20:32;;;;;;;49.03;14.30;;;;;;;20.38;100.00;101215.81;4993705;28;20262;-49
2022/10/02 01:23:06;;;;;;;43.10;13.40;;;;;;;20.27;100.00;101217.56;5001024;28;20284;-51
2022/10/02 01:25:32;;;;;;;43.90;13.33;;;;;;;20.96;100.00;101220.84;4988320;28;20050;-51
2022/10/02 01:27:58;;;;;;;61.57;13.57;;;;;;;20.65;100.00;101224.00;5004108;28;20287;-53
2022/10/02 01:30:24;;;;;;;53.50;13.37;;;;;;;21.17;100.00;101228.13;5010562;28;20046;-50
2022/10/02 01:32:54;;;;;;;;;;;;;;;20.89;100.00;101227.31;5005898;28;20106;-51
2022/10/02 01:35:25;;;;;;;39.67;10.73;;;;;;;20.01;100.00;101234.34;4990829;28;19914;-53
2022/10/02 01:37:53;;;;;;;63.03;12.10;;;;;;;20.16;100.00;101231.00;4999579;28;20355;-51
2022/10/02 01:40:27;;;;;;;48.17;11.20;;;;;;;20.01;100.00;101233.50;5016564;28;20273;-48
2022/10/02 01:42:56;;;;;;;42.20;8.63;;;;;;;19.83;100.00;101232.66;4998389;28;20265;-53
2022/10/02 01:45:42;;;;;;;46.97;9.27;;;;;;;20.28;100.00;101227.34;5001684;28;20268;-53
2022/10/02 01:48:20;;;;;;;33.97;7.83;;;;;;;20.75;100.00;101235.00;4992196;28;20285;-50
2022/10/02 01:50:59;;;;;;;31.97;7.27;;;;;;;20.01;100.00;101225.34;4996830;28;20281;-55
2022/10/02 01:53:44;;;;;;;32.90;7.70;;;;;;;20.17;100.00;101224.50;4999822;28;20332;-52
2022/10/02 01:56:24;;;;;;;43.27;6.27;;;;;;;20.25;100.00;101227.84;5013794;28;20277;-51
2022/10/02 01:59:09;;;;;;;39.83;6.37;;;;;;;20.19;100.00;101227.78;4999915;28;20334;-52
2022/10/02 02:01:51;;;;;;;29.40;8.00;;;;;;;20.35;100.00;101230.72;5009727;28;20277;-53
2022/10/02 02:04:22;;;;;;;37.57;7.03;;;;;;;19.87;100.00;101233.84;5005336;28;20295;-50
2022/10/02 02:06:56;;;;;;;44.80;7.53;;;;;;;20.04;100.00;101233.00;5003133;28;20295;-52
2022/10/02 02:09:53;;;;;;;45.27;8.60;;;;;;;19.94;100.00;101235.59;5006256;28;20345;-52
2022/10/02 02:12:42;;;;;;;30.00;7.20;;;;;;;20.18;100.00;101236.19;5014314;28;20289;-56
2022/10/02 02:15:41;;;;;;;35.20;6.63;;;;;;;19.80;100.00;101244.03;4989175;28;20265;-53
2022/10/02 02:18:10;;;;;;;;;;;;;;;20.46;100.00;101235.19;5001479;28;20278;-51
2022/10/02 02:20:46;;;;;;;41.17;6.90;;;;;;;20.44;100.00;101240.06;5010055;28;19936;-52
2022/10/02 02:23:27;;;;;;;44.78;8.00;;;;;;;20.16;100.00;101233.72;5012357;28;20331;-51
2022/10/02 02:25:59;;;;;;;47.50;8.23;;;;;;;20.42;100.00;101236.78;5005773;28;20030;-52
2022/10/02 02:28:28;;;;;;;27.57;8.03;;;;;;;20.67;100.00;101240.06;4991835;28;20261;-52
2022/10/02 02:30:54;;;;;;;50.03;8.87;;;;;;;20.08;100.00;101236.88;4996358;28;20324;-56
2022/10/02 02:33:22;;;;;;;;;;;;;;;20.47;100.00;101239.56;5003051;28;20394;-51
2022/10/02 02:35:53;;;;;;;32.33;5.87;;;;;;;20.29;100.00;101242.56;4989613;28;19918;-54
2022/10/02 02:38:27;;;;;;;40.57;6.07;;;;;;;20.47;100.00;101236.03;4999183;28;20266;-53
2022/10/02 02:40:59;;;;;;;52.80;8.27;;;;;;;20.40;100.00;101228.06;4989207;28;20273;-50
2022/10/02 02:43:31;;;;;;;43.23;6.80;;;;;;;20.68;100.00;101228.13;4990879;28;20850;-56
2022/10/02 02:46:02;;;;;;;36.47;6.30;;;;;;;20.88;100.00;101241.16;4995332;28;20272;-51
2022/10/02 02:48:35;;;;;;;44.60;7.53;;;;;;;20.94;100.00;101234.69;4998728;28;20265;-51
2022/10/02 02:51:29;;;;;;;46.17;7.43;;;;;;;20.55;100.00;101240.22;4995583;28;20289;-52
2022/10/02 02:54:06;;;;;;;33.13;6.67;;;;;;;20.33;100.00;101239.13;4998729;28;20346;-53
2022/10/02 02:56:32;;;;;;;31.10;5.70;;;;;;;20.27;100.00;101240.13;4991246;28;20823;-53
2022/10/02 02:59:19;;;;;;;37.47;6.07;;;;;;;20.22;100.00;101242.78;4997373;28;20277;-53
2022/10/02 03:01:45;;;;;;;36.15;5.35;;;;;;;19.94;100.00;101249.16;4999122;28;20269;-54
2022/10/02 03:04:12;;;;;;;31.90;5.70;;;;;;;20.74;100.00;101246.94;5005336;28;20055;-53
2022/10/02 03:06:48;;;;;;;38.70;6.03;;;;;;;20.49;100.00;101255.63;5009994;28;20038;-55
2022/10/02 03:09:20;;;;;;;28.10;5.77;;;;;;;20.81;100.00;101252.22;4995319;28;20277;-53
2022/10/02 03:11:51;;;;;;;29.87;6.33;;;;;;;21.01;100.00;101253.50;4991660;28;20276;-54
2022/10/02 03:14:36;;;;;;;34.63;6.40;;;;;;;20.11;100.00;101252.66;4998892;28;20269;-54
2022/10/02 03:17:11;;;;;;;29.10;5.73;;;;;;;20.38;100.00;101256.53;4996974;28;20269;-50
2022/10/02 03:19:40;;;;;;;34.63;6.80;;;;;;;20.86;100.00;101254.19;5009395;28;20332;-52
2022/10/02 03:22:49;;;;;;;36.73;5.80;;;;;;;21.34;100.00;101257.94;5002328;28;20284;-52
2022/10/02 03:25:32;;;;;;;29.33;5.85;;;;;;;21.20;100.00;101249.38;5001126;28;20284;-53
2022/10/02 03:28:07;;;;;;;33.17;5.57;;;;;;;20.97;100.00;101255.09;5012561;28;20050;-51
2022/10/02 03:30:36;;;;;;;38.50;5.30;;;;;;;20.48;100.00;101245.81;5001088;28;20272;-54
2022/10/02 03:33:04;;;;;;;32.33;6.57;;;;;;;20.60;100.00;101251.94;5002041;28;20262;-53
2022/10/02 03:35:31;;;;;;;36.23;6.23;;;;;;;20.59;100.00;101252.22;4998076;28;20276;-54
2022/10/02 03:38:05;;;;;;;37.20;7.50;;;;;;;20.77;100.00;101268.19;4994091;28;20281;-56
2022/10/02 03:40:31;;;;;;;29.77;6.30;;;;;;;20.23;100.00;101252.56;4990887;28;20276;-53
2022/10/02 03:42:57;;;;;;;40.57;6.67;;;;;;;20.54;100.00;101254.88;5006542;28;20288;-53
2022/10/02 03:45:23;;;;;;;;;;;;;;;20.61;100.00;101247.34;5000084;28;20031;-54
2022/10/02 03:47:49;;;;;;;53.07;8.73;;;;;;;20.28;100.00;101249.06;4998188;28;19922;-52
2022/10/02 03:50:15;;;;;;;55.90;7.72;;;;;;;20.02;100.00;101251.44;4999471;28;20270;-53
2022/10/02 03:52:42;;;;;;;43.13;7.47;;;;;;;20.25;100.00;101246.88;5004361;28;20093;-54
2022/10/02 03:55:28;;;;;;;57.10;7.57;;;;;;;20.33;100.00;101258.13;5003796;28;20038;-51
2022/10/02 03:57:54;;;;;;;42.03;7.83;;;;;;;20.96;100.00;101261.63;4989782;28;20118;-56
2022/10/02 04:00:33;;;;;;;38.33;7.50;;;;;;;21.05;100.00;101266.34;5010547;28;20291;-54
2022/10/02 04:03:13;;;;;;;54.50;7.53;;;;;;;20.12;100.00;101262.47;4990466;28;20299;-54
2022/10/02 04:05:40;;;;;;;36.87;7.63;;;;;;;20.25;100.00;101260.44;4998826;28;20261;-57
2022/10/02 04:08:22;;;;;;;50.23;7.80;;;;;;;20.97;100.00;101272.22;5000594;28;20322;-56
2022/10/02 04:11:09;;;;;;;42.50;7.80;;;;;;;20.84;100.00;101267.19;4991663;28;20266;-55
2022/10/02 04:13:47;;;;;;;50.57;7.30;;;;;;;20.25;100.00;101263.16;5004088;28;20291;-52
2022/10/02 04:16:19;;;;;;;41.03;7.97;;;;;;;20.20;100.00;101270.16;4989692;28;20274;-54
2022/10/02 04:18:57;;;;;;;49.60;9.70;;;;;;;20.18;100.00;101264.16;4993513;28;20265;-53
2022/10/02 04:21:34;;;;;;;46.43;8.50;;;;;;;20.48;100.00;101273.00;4997986;28;20268;-51
2022/10/02 04:24:11;;;;;;;42.67;6.80;;;;;;;20.17;100.00;101261.69;4998818;28;20281;-54
2022/10/02 04:26:45;;;;;;;43.70;8.73;;;;;;;20.78;100.00;101258.97;5005980;28;20290;-54
2022/10/02 04:29:26;;;;;;;59.13;8.33;;;;;;;20.87;100.00;101266.69;4989333;28;20099;-54
2022/10/02 04:32:06;;;;;;;45.90;7.97;;;;;;;20.81;100.00;101267.72;4996695;28;20276;-54
2022/10/02 04:34:31;;;;;;;42.47;7.50;;;;;;;20.39;100.00;101267.16;4992485;28;20283;-55
2022/10/02 04:37:20;;;;;;;52.40;7.03;;;;;;;20.43;100.00;101265.59;4990466;28;20273;-54
2022/10/02 04:40:06;;;;;;;41.23;7.00;;;;;;;20.48;100.00;101276.50;4984223;28;20069;-50
2022/10/02 04:42:55;;;;;;;45.50;8.13;;;;;;;20.40;100.00;101279.66;4997445;28;20270;-53
2022/10/02 04:45:39;;;;;;;38.67;6.80;;;;;;;20.26;100.00;101281.94;4988406;28;20273;-53
2022/10/02 04:48:28;;;;;;;38.80;8.30;;;;;;;20.64;100.00;101284.88;5003758;28;20301;-52
2022/10/02 04:51:00;;;;;;;41.27;6.37;;;;;;;20.55;100.00;101284.47;5004062;28;20311;-51
2022/10/02 04:54:20;;;;;;;39.30;7.33;;;;;;;20.30;100.00;101288.50;4997852;28;20272;-54
2022/10/02 04:57:04;;;;;;;41.20;6.40;;;;;;;20.36;100.00;101294.84;4944605;28;20284;-49
2022/10/02 05:00:01;;;;;;;46.30;7.03;;;;;;;20.70;100.00;101302.06;4986564;28;20292;-51
2022/10/02 05:02:57;;;;;;;27.93;6.77;;;;;;;20.81;100.00;101311.19;5008133;28;20339;-50
2022/10/02 05:05:56;;;;;;;45.07;7.00;;;;;;;21.31;100.00;101309.28;4992286;28;20273;-52
2022/10/02 05:08:52;;;;;;;23.97;6.30;;;;;;;20.55;100.00;101308.94;4999538;28;20256;-53
2022/10/02 05:11:43;;;;;;;32.40;6.27;;;;;;;20.42;100.00;101299.25;5005811;28;20261;-53
2022/10/02 05:14:44;;;;;;;45.50;6.73;;;;;;;20.32;100.00;101299.94;4990373;28;20328;-50
2022/10/02 05:17:30;;;;;;;34.00;5.53;;;;;;;19.92;100.00;101306.38;4988296;28;20356;-55
2022/10/02 05:20:20;;;;;;;23.60;5.27;;;;;;;21.30;100.00;101303.03;5000088;28;20305;-54
2022/10/02 05:23:01;;;;;;;24.97;6.10;;;;;;;21.08;100.00;101310.41;5001828;28;20261;-55
2022/10/02 05:26:05;;;;;;;28.23;5.83;;;;;;;21.03;100.00;101319.34;5014881;28;20272;-49
2022/10/02 05:28:49;;;;;;;28.00;6.10;;;;;;;20.95;100.00;101328.75;5002127;28;20265;-54
2022/10/02 05:31:40;;;;;;;25.77;5.87;;;;;;;20.86;100.00;101335.72;5002114;28;20272;-51
2022/10/02 05:34:26;;;;;;;32.20;5.53;;;;;;;21.10;100.00;101330.03;4992465;28;20261;-52
2022/10/02 05:37:11;;;;;;;47.72;6.75;;;;;;;20.52;100.00;101344.75;5001583;28;20287;-51
2022/10/02 05:39:53;;;;;;;32.87;5.53;;;;;;;20.64;100.00;101339.22;5011792;28;20064;-54
2022/10/02 05:42:31;;;;;;;39.47;5.97;;;;;;;20.88;100.00;101341.72;4992419;28;20284;-51
2022/10/02 05:45:03;;;;;;;42.83;5.80;;;;;;;21.33;100.00;101343.31;5014650;28;20299;-50
2022/10/02 05:47:35;;;;;;;40.17;6.23;;;;;;;20.77;100.00;101347.00;5011523;28;20272;-49
2022/10/02 05:50:15;;;;;;;40.37;5.73;;;;;;;21.02;100.00;101350.31;5019558;28;20277;-54
2022/10/02 05:52:46;;;;;;;31.47;6.10;;;;;;;21.24;100.00;101347.59;4951030;28;20270;-52
2022/10/02 05:55:30;;;;;;;23.57;5.07;;;;;;;21.57;100.00;101345.75;4951863;28;20828;-56
2022/10/02 05:58:12;;;;;;;25.80;4.80;;;;;;;21.05;100.00;101357.97;4951759;29;20373;-53
2022/10/02 06:01:02;;;;;;;32.73;6.07;;;;;;;20.99;100.00;101351.66;4953242;29;20266;-52
2022/10/02 06:03:54;;;;;;;28.47;5.23;;;;;;;21.27;100.00;101347.06;4953355;28;20282;-53
2022/10/02 06:06:25;;;;;;;25.10;4.77;;;;;;;21.58;100.00;101352.81;4953248;28;20312;-54
2022/10/02 06:09:09;;;;;;;32.30;5.30;;;;;;;21.70;100.00;101360.06;4952841;28;20269;-55
2022/10/02 06:11:41;;;;;;;26.70;6.07;;;;;;;21.42;100.00;101356.47;4952358;29;20284;-52
2022/10/02 06:14:16;;;;;;;33.53;5.50;;;;;;;21.47;100.00;101360.06;4953184;29;20299;-52
2022/10/02 06:16:48;;;;;;;25.53;4.60;;;;;;;21.50;100.00;101364.19;4951358;29;20285;-50
2022/10/02 06:19:22;;;;;;;23.30;4.80;;;;;;;21.25;100.00;101381.88;4953116;28;20274;-49
2022/10/02 06:22:13;;;;;;;27.93;5.23;;;;;;;20.71;100.00;101379.81;4951043;29;20274;-50
2022/10/02 06:24:57;;;;;;;20.27;4.53;;;;;;;20.76;100.00;101379.88;4952089;29;20282;-56
2022/10/02 06:27:42;;;;;;;29.30;4.37;;;;;;;20.47;100.00;101385.44;4952215;28;20281;-51
2022/10/02 06:30:11;;;;;;;21.27;4.63;;;;;;;21.31;100.00;101383.56;4953261;29;20346;-53
2022/10/02 06:32:50;;;;;;;22.23;5.20;;;;;;;21.32;100.00;101393.38;4956246;29;20293;-49
2022/10/02 06:35:34;;;;;;;27.93;4.63;;;;;;;20.88;100.00;101374.34;4955920;29;20280;-51
2022/10/02 06:38:15;;;;;;;22.73;3.97;;;;;;;20.74;100.00;101371.13;4955357;29;20278;-53
2022/10/02 06:40:46;;;;;;;39.83;5.63;;;;;;;20.96;100.00;101375.81;4955221;29;20269;-52
2022/10/02 06:43:30;;;;;;;23.93;4.57;;;;;;;21.20;100.00;101377.19;4955897;28;20297;-50
2022/10/02 06:46:25;;;;;;;20.07;4.20;;;;;;;21.22;100.00;101382.38;4953625;29;20278;-52
2022/10/02 06:49:08;;;;;;;37.63;5.67;;;;;;;21.79;100.00;101388.44;4955968;28;20329;-52
2022/10/02 06:51:53;;;;;;;22.13;4.87;;;;;;;21.13;100.00;101382.00;4980439;28;20280;-53
2022/10/02 06:54:29;;;;;;;31.07;5.43;;;;;;;21.56;100.00;101381.38;5004311;28;20284;-53
2022/10/02 06:57:24;;;;;;;22.75;4.75;;;;;;;20.56;100.00;101394.00;5012989;28;20307;-53
2022/10/02 07:00:04;;;;;;;30.63;4.17;;;;;;;20.62;100.00;101391.06;5012625;28;20159;-52
2022/10/02 07:02:47;;;;;;;22.43;4.47;;;;;;;21.32;100.00;101408.84;5014079;28;20276;-53
2022/10/02 07:05:54;;;;;;;28.60;5.77;;;;;;;21.33;100.00;101399.63;5005146;28;20306;-51
2022/10/02 07:08:45;;;;;;;30.67;5.28;;;;;;;21.52;100.00;101404.72;5022716;28;20284;-53
2022/10/02 07:11:23;;;;;;;37.30;5.50;;;;;;;21.40;100.00;101407.59;5003881;28;20042;-55
2022/10/02 07:14:27;;;;;;;27.20;4.93;;;;;;;20.82;100.00;101416.13;4995550;28;20264;-55
2022/10/02 07:17:08;;;;;;;32.27;5.87;;;;;;;21.10;100.00;101419.75;4998424;28;20309;-56
2022/10/02 07:20:01;;;;;;;37.40;6.30;;;;;;;21.44;100.00;101425.88;5013820;28;20273;-56
2022/10/02 07:22:57;;;;;;;35.43;7.40;;;;;;;21.18;100.00;101424.75;5001347;28;20319;-56
2022/10/02 07:25:38;;;;;;;24.73;5.73;;;;;;;21.97;100.00;101427.25;4996762;28;20268;-52
2022/10/02 07:28:36;;;;;;;36.43;6.50;;;;;;;22.03;100.00;101431.66;5002005;28;20284;-50
2022/10/02 07:31:20;;;;;;;30.40;5.45;;;;;;;21.45;100.00;101435.69;4992684;28;20345;-50
2022/10/02 07:34:00;;;;;;;27.93;5.97;;;;;;;21.90;100.00;101439.16;4992528;28;20045;-54
2022/10/02 07:36:55;;;;;;;28.67;5.30;;;;;;;21.81;100.00;101451.63;5000693;28;20273;-49
2022/10/02 07:39:35;;;;;;;35.67;6.23;;;;;;;21.27;100.00;101436.84;4993547;28;20288;-55
2022/10/02 07:42:26;;;;;;;29.93;5.70;;;;;;;21.99;100.00;101446.88;5000613;28;20280;-54
2022/10/02 07:45:19;;;;;;;32.80;5.70;;;;;;;22.43;100.00;101449.44;4997749;28;20281;-53
2022/10/02 07:48:07;;;;;;;22.17;5.03;;;;;;;22.22;100.00;101461.25;4998424;28;20330;-54
2022/10/02 07:50:44;;;;;;;34.13;5.40;;;;;;;22.40;100.00;101458.16;5011913;28;20284;-52
2022/10/02 07:53:37;;;;;;;28.30;5.05;;;;;;;22.63;100.00;101454.25;5002184;28;20296;-50
2022/10/02 07:56:07;;;;;;;28.60;4.70;;;;;;;22.48;100.00;101459.56;4990838;28;20069;-51
2022/10/02 07:58:48;;;;;;;37.43;5.93;;;;;;;22.47;100.00;101463.38;4996391;28;20052;-56
2022/10/02 08:01:23;;;;;;;31.43;6.43;;;;;;;22.72;100.00;101476.38;5004627;28;20042;-55
2022/10/02 08:03:56;;;;;;;25.93;5.07;;;;;;;22.74;100.00;101471.50;5000700;28;20285;-52
2022/10/02 08:06:21;;;;;;;25.67;6.00;;;;;;;22.31;100.00;101476.88;4990028;28;20283;-55
2022/10/02 08:08:58;;;;;;;34.13;6.72;;;;;;;23.26;100.00;101482.72;4992273;28;20269;-53
2022/10/02 08:11:31;;;;;;;28.77;6.45;;;;;;;23.53;100.00;101484.47;4990964;28;20031;-54
2022/10/02 08:14:30;;;;;;;29.00;6.97;;;;;;;23.67;100.00;101481.22;4997844;28;20107;-54
2022/10/02 08:17:03;;;;;;;36.10;8.10;;;;;;;23.52;100.00;101488.28;4988634;28;20057;-51
2022/10/02 08:20:06;;;;;;;31.07;7.13;;;;;;;23.31;100.00;101490.09;4988299;28;20066;-52
2022/10/02 08:22:37;;;;;;;36.53;6.30;;;;;;;23.94;100.00;101505.63;5005077;28;20125;-57
2022/10/02 08:25:49;;;;;;;24.10;5.53;;;;;;;23.65;100.00;101506.09;4993886;28;20039;-55
2022/10/02 08:28:34;;;;;;;21.93;4.70;;;;;;;23.52;100.00;101509.31;5005124;28;20059;-54
2022/10/02 08:31:01;;;;;;;18.63;3.97;;;;;;;23.89;100.00;101511.06;4997518;28;20042;-51
2022/10/02 08:33:29;;;;;;;;;;;;;;;23.90;100.00;101510.78;5010373;28;20089;-51
2022/10/02 08:36:31;;;;;;;19.90;4.23;;;;;;;24.64;100.00;101526.19;5002006;28;19918;-53
2022/10/02 08:39:19;;;;;;;16.03;3.20;;;;;;;23.60;100.00;101531.44;4989657;28;20042;-54
2022/10/02 08:41:56;;;;;;;24.83;3.67;;;;;;;23.32;100.00;101525.34;5005581;28;20043;-53
2022/10/02 08:44:49;;;;;;;18.97;4.07;;;;;;;24.39;100.00;101535.22;4996146;28;20033;-56
2022/10/02 08:47:38;;;;;;;23.03;3.87;;;;;;;23.81;100.00;101536.16;4996902;28;20058;-54
2022/10/02 08:50:34;;;;;;;18.57;3.30;;;;;;;23.93;100.00;101539.47;5006507;28;20046;-53
2022/10/02 08:53:46;;;;;;;26.02;3.30;;;;;;;24.34;100.00;101544.22;5005016;28;20062;-54
2022/10/02 08:56:37;;;;;;;17.37;3.67;;;;;;;24.70;100.00;101546.97;5006054;28;20098;-54
2022/10/02 08:59:21;;;;;;;15.87;3.70;;;;;;;24.77;100.00;101554.91;5012307;28;20047;-53
2022/10/02 09:02:26;;;;;;;17.33;4.10;;;;;;;25.09;100.00;101552.97;4992898;28;20039;-55
2022/10/02 09:05:18;;;;;;;16.47;4.27;;;;;;;25.97;100.00;101556.25;4997340;28;20043;-53
2022/10/02 09:08:21;;;;;;;20.77;4.33;;;;;;;26.17;100.00;101562.69;4998345;28;20025;-54
2022/10/02 09:11:02;;;;;;;22.20;5.77;;;;;;;25.94;100.00;101561.44;5001183;28;20042;-56
2022/10/02 09:13:47;;;;;;;24.90;4.93;;;;;;;26.56;100.00;101566.56;4995638;28;20066;-52
2022/10/02 09:16:37;;;;;;;17.07;4.20;;;;;;;27.08;100.00;101566.13;4990693;28;20110;-53
2022/10/02 09:19:18;;;;;;;13.23;3.97;;;;;;;27.53;100.00;101571.41;5004513;28;20090;-55
2022/10/02 09:21:57;;;;;;;22.03;4.07;;;;;;;27.80;100.00;101567.22;4995652;28;20035;-55
2022/10/02 09:24:51;;;;;;;19.47;4.73;;;;;;;28.19;100.00;101566.97;5003943;28;20031;-51
2022/10/02 09:27:35;;;;;;;20.63;5.40;;;;;;;27.86;100.00;101571.53;4995259;28;20039;-53
2022/10/02 09:30:12;;;;;;;14.03;3.37;;;;;;;26.46;100.00;101564.72;4995475;28;20094;-56
2022/10/02 09:33:16;;;;;;;13.93;2.90;;;;;;;26.32;100.00;101567.28;5007270;28;20102;-52
2022/10/02 09:36:02;;;;;;;22.97;3.67;;;;;;;26.93;100.00;101570.63;5019839;28;20039;-52
2022/10/02 09:38:49;;;;;;;15.18;3.85;;;;;;;27.85;100.00;101578.16;4989952;28;20083;-56
2022/10/02 09:41:40;;;;;;;14.85;3.60;;;;;;;26.65;100.00;101575.00;4997079;28;20051;-50
2022/10/02 09:44:44;;;;;;;16.53;3.03;;;;;;;26.34;100.00;101578.78;5015663;28;20067;-55
2022/10/02 09:47:42;;;;;;;16.50;2.47;;;;;;;26.58;100.00;101581.59;5000381;28;20046;-54
2022/10/02 09:50:25;;;;;;;20.43;3.67;;;;;;;25.52;100.00;101580.81;5001169;28;20029;-53
2022/10/02 09:53:25;;;;;;;15.67;2.53;;;;;;;26.81;100.00;101583.91;4984951;28;20039;-55
2022/10/02 09:55:54;;;;;;;32.87;3.20;;;;;;;27.08;100.00;101588.06;5003543;28;20035;-55
2022/10/02 09:58:57;;;;;;;9.30;2.30;;;;;;;27.66;100.00;101589.09;4998109;28;20035;-54
2022/10/02 10:01:47;;;;;;;19.53;2.77;;;;;;;28.76;100.00;101598.25;4996664;28;20061;-56
2022/10/02 10:04:45;;;;;;;10.33;2.60;;;;;;;28.80;100.00;101590.22;4997719;28;20036;-54
2022/10/02 10:07:19;;;;;;;14.23;2.60;;;;;;;29.88;95.54;101607.44;5003047;28;20065;-54
2022/10/02 10:10:02;;;;;;;14.70;2.77;;;;;;;30.99;89.30;101610.94;4992976;28;20031;-55
2022/10/02 10:12:40;;;;;;;15.40;3.23;;;;;;;29.44;89.68;101611.66;5007685;28;20033;-53
2022/10/02 10:15:33;;;;;;;13.63;2.93;;;;;;;31.26;78.16;101614.69;5002986;28;20054;-57
2022/10/02 10:18:25;;;;;;;15.40;2.63;;;;;;;31.42;77.97;101622.53;4994878;28;20065;-57
2022/10/02 10:21:28;;;;;;;20.25;2.90;;;;;;;29.62;83.88;101620.94;5024023;28;20089;-54
2022/10/02 10:24:19;;;;;;;10.53;2.03;;;;;;;28.52;90.34;101618.47;5034160;28;20032;-54
2022/10/02 10:27:00;;;;;;;16.37;2.63;;;;;;;28.63;98.19;101606.16;5015732;28;20055;-54
2022/10/02 10:29:54;;;;;;;9.47;2.40;;;;;;;29.08;95.19;101617.84;4992795;28;20031;-51
2022/10/02 10:33:07;;;;;;;17.87;3.20;;;;;;;28.52;90.44;101620.38;5004631;28;20049;-55
2022/10/02 10:35:44;;;;;;;8.83;2.07;;;;;;;28.82;88.46;101621.03;4991283;28;20053;-53
2022/10/02 10:38:35;;;;;;;16.50;3.03;;;;;;;27.60;91.94;101616.63;5018256;28;20059;-52
2022/10/02 10:41:09;;;;;;;10.10;2.07;;;;;;;27.73;93.60;101625.28;5012062;28;20054;-55
2022/10/02 10:44:03;;;;;;;13.10;2.73;;;;;;;28.22;92.19;101630.72;4995686;28;20061;-54
2022/10/02 10:46:58;;;;;;;14.57;2.43;;;;;;;27.19;88.32;101641.75;5009130;28;20057;-54
2022/10/02 10:49:34;;;;;;;12.93;2.60;;;;;;;28.86;80.33;101647.66;4994994;28;20110;-55
2022/10/02 10:52:06;;;;;;;10.95;2.20;;;;;;;28.12;93.85;101646.22;4993099;28;20118;-54
2022/10/02 10:54:39;;;;;;;12.40;2.07;;;;;;;28.38;88.53;101651.41;5005950;28;20062;-54
2022/10/02 10:57:40;;;;;;;8.80;2.23;;;;;;;30.18;78.18;101660.31;4995757;28;20035;-57
2022/10/02 11:00:28;;;;;;;7.97;1.87;;;;;;;30.98;71.45;101663.72;5008126;28;20026;-54
2022/10/02 11:03:20;;;;;;;10.50;3.23;;;;;;;30.53;74.90;101667.28;4997746;28;20058;-56
2022/10/02 11:06:25;;;;;;;8.03;1.83;;;;;;;28.77;85.43;101663.19;5000364;28;20046;-53
2022/10/02 11:09:28;;;;;;;12.07;2.10;;;;;;;29.27;83.39;101659.06;4994310;28;20088;-54
2022/10/02 11:12:20;;;;;;;12.37;2.43;;;;;;;28.97;78.16;101666.75;5008776;28;20038;-51
2022/10/02 11:15:16;;;;;;;12.50;2.50;;;;;;;29.09;82.82;101666.28;5006089;28;20082;-51
2022/10/02 11:17:53;;;;;;;16.17;2.33;;;;;;;29.30;77.64;101664.81;5002406;28;20038;-55
2022/10/02 11:20:35;;;;;;;11.95;1.98;;;;;;;28.88;79.14;101672.94;4995098;28;20045;-52
2022/10/02 11:23:17;;;;;;;12.50;1.80;;;;;;;30.13;78.97;101673.44;5023180;28;20046;-54
2022/10/02 11:26:11;;;;;;;13.07;1.97;;;;;;;31.37;72.56;101686.22;4992773;28;20050;-57
2022/10/02 11:28:55;;;;;;;10.03;2.60;;;;;;;31.45;69.30;101688.22;5000133;28;20038;-53
2022/10/02 11:31:30;;;;;;;9.50;2.07;;;;;;;31.27;68.56;101699.19;5002257;28;20105;-53
2022/10/02 11:34:15;;;;;;;8.50;1.80;;;;;;;31.77;63.30;101689.00;5003025;28;20062;-54
2022/10/02 11:36:51;;;;;;;12.95;2.13;;;;;;;31.64;60.96;101696.25;4999656;28;20050;-58
2022/10/02 11:39:23;;;;;;;6.43;2.00;;;;;;;32.84;58.91;101701.84;5010625;28;20054;-55
2022/10/02 11:42:04;;;;;;;9.05;1.88;;;;;;;33.15;60.25;101695.28;4993440;28;20102;-54
2022/10/02 11:44:56;;;;;;;8.85;1.90;;;;;;;33.55;56.19;101696.97;5014362;28;20035;-55
2022/10/02 11:47:53;;;;;;;12.00;1.73;;;;;;;33.77;49.31;101695.91;4993234;28;20046;-57
2022/10/02 11:50:38;;;;;;;;;;;;;;;33.15;52.03;101700.84;5000985;28;20126;-57
2022/10/02 11:53:46;;;;;;;11.57;1.85;;;;;;;33.66;45.93;101705.72;4991889;28;19914;-57
2022/10/02 11:56:30;;;;;;;;;;;;;;;34.10;43.44;101706.31;4989576;28;20036;-53
2022/10/02 11:59:05;;;;;;;9.52;1.23;;;;;;;34.94;45.09;101701.06;4997513;28;19914;-54
2022/10/02 12:01:44;;;;;;;7.43;1.60;;;;;;;35.26;42.98;101710.56;5006692;28;20036;-54
2022/10/02 12:04:39;;;;;;;10.70;2.55;;;;;;;33.88;46.37;101711.00;5011921;28;20068;-54
2022/10/02 12:07:30;;;;;;;11.80;2.83;;;;;;;34.47;39.49;101716.81;5003128;28;20046;-57
2022/10/02 12:10:29;;;;;;;6.13;1.77;;;;;;;36.14;41.32;101723.38;4992464;28;20027;-56
2022/10/02 12:13:19;;;;;;;10.45;2.30;;;;;;;35.85;40.98;101714.09;5019086;28;20037;-58
2022/10/02 12:16:01;;;;;;;6.40;1.40;;;;;;;37.34;41.41;101720.31;4998147;28;20094;-54
2022/10/02 12:18:51;;;;;;;11.70;2.65;;;;;;;38.00;39.56;101726.34;4992340;28;20064;-55
2022/10/02 12:27:39;;;;;;;9.35;1.55;;;;;;;39.27;31.17;101738.09;5002301;28;20049;-55